Time;durP1;ratioP1;P1;durP2;ratioP2;P2;SDS_P1;SDS_P2;PMS_P1;PMS_P2;Temp;Humidity;BMP_temperature;BMP_pressure;BME280_temperature;BME280_humidity;BME280_pressure;Samples;Min_cycle;Max_cycle;Signal;HPM_P1;HPM_P2
2022/07/14 00:01:45;;;;;;;0.82;0.82;;;;;;;22.11;41.01;98376.03;5023546;28;20041;-86
2022/07/14 00:04:12;;;;;;;0.70;0.70;;;;;;;22.09;43.94;98378.19;5026401;28;20037;-85
2022/07/14 00:06:39;;;;;;;0.70;0.70;;;;;;;22.00;46.38;98376.28;5023275;28;20049;-86
2022/07/14 00:09:05;;;;;;;0.60;0.60;;;;;;;21.94;46.78;98372.81;5024999;28;20421;-86
2022/07/14 00:11:32;;;;;;;0.57;0.57;;;;;;;21.86;46.97;98368.00;5026992;28;20053;-86
2022/07/14 00:13:59;;;;;;;0.50;0.50;;;;;;;21.79;47.13;98362.94;5028582;28;20084;-85
2022/07/14 00:16:26;;;;;;;0.70;0.70;;;;;;;21.81;46.35;98370.66;5023391;28;20096;-86
2022/07/14 00:18:53;;;;;;;1.02;0.80;;;;;;;21.73;46.01;98364.00;5020872;28;20042;-85
2022/07/14 00:21:19;;;;;;;0.80;0.80;;;;;;;21.70;45.07;98372.50;5028429;28;20494;-86
2022/07/14 00:23:48;;;;;;;0.80;0.80;;;;;;;21.61;45.39;98377.59;5020868;28;20077;-86
2022/07/14 00:26:15;;;;;;;0.70;0.70;;;;;;;21.64;46.09;98379.72;5021563;28;20038;-86
2022/07/14 00:28:42;;;;;;;0.70;0.70;;;;;;;21.64;45.30;98369.03;5024384;28;20033;-86
2022/07/14 00:31:11;;;;;;;0.95;0.88;;;;;;;21.58;44.12;98370.09;5019688;28;20037;-86
2022/07/14 00:33:39;;;;;;;0.75;0.60;;;;;;;21.59;45.36;98365.56;5019115;28;20045;-87
2022/07/14 00:36:07;;;;;;;0.70;0.70;;;;;;;21.54;45.54;98363.69;5021449;28;20045;-86
2022/07/14 00:38:35;;;;;;;0.60;0.60;;;;;;;21.57;46.06;98367.69;5023090;28;20096;-85
2022/07/14 00:41:01;;;;;;;0.73;0.55;;;;;;;21.49;45.67;98355.69;5024473;28;20531;-86
2022/07/14 00:43:29;;;;;;;0.70;0.70;;;;;;;21.46;44.71;98361.53;5020203;28;20517;-86
2022/07/14 00:45:56;;;;;;;0.70;0.70;;;;;;;21.45;45.54;98359.94;5024012;28;20038;-86
2022/07/14 00:48:24;;;;;;;0.73;0.73;;;;;;;21.38;46.79;98362.84;5022616;28;20097;-85
2022/07/14 00:50:51;;;;;;;0.70;0.70;;;;;;;21.37;46.36;98360.44;5023275;28;20112;-86
2022/07/14 00:53:19;;;;;;;0.80;0.80;;;;;;;21.33;47.61;98365.50;5024079;28;20053;-85
2022/07/14 00:55:46;;;;;;;0.75;0.70;;;;;;;21.28;47.70;98356.66;5024849;28;20482;-86
2022/07/14 00:58:13;;;;;;;0.80;0.80;;;;;;;21.30;48.49;98358.03;5020529;28;20041;-85
2022/07/14 01:00:40;;;;;;;0.82;0.70;;;;;;;21.29;49.42;98347.59;5023512;28;20094;-85
2022/07/14 01:03:07;;;;;;;1.00;0.70;;;;;;;21.30;49.81;98352.69;5023044;28;20466;-85
2022/07/14 01:05:34;;;;;;;0.73;0.60;;;;;;;21.36;47.89;98348.19;5026016;28;20462;-86
2022/07/14 01:08:01;;;;;;;0.95;0.75;;;;;;;21.44;46.73;98358.34;5026192;28;20075;-86
2022/07/14 01:10:28;;;;;;;0.90;0.90;;;;;;;21.39;47.08;98352.97;5024986;28;20080;-86
2022/07/14 01:13:02;;;;;;;0.63;0.63;;;;;;;21.30;49.15;98352.69;5026545;28;20124;-86
2022/07/14 01:15:29;;;;;;;0.88;0.70;;;;;;;21.30;49.54;98357.25;5022889;28;20161;-86
2022/07/14 01:17:55;;;;;;;0.50;0.50;;;;;;;21.27;48.71;98355.06;5020028;28;20456;-85
2022/07/14 01:20:26;;;;;;;0.68;0.68;;;;;;;21.25;49.38;98349.97;5022534;28;20444;-86
2022/07/14 01:22:52;;;;;;;0.70;0.70;;;;;;;21.21;50.01;98342.75;5026267;28;20061;-85
2022/07/14 01:25:20;;;;;;;0.75;0.70;;;;;;;21.25;49.37;98349.19;5024300;28;20069;-86
2022/07/14 01:27:48;;;;;;;2.03;0.70;;;;;;;21.34;48.36;98342.28;5017983;28;20143;-85
2022/07/14 01:30:15;;;;;;;0.60;0.60;;;;;;;21.32;47.51;98334.56;5019800;28;20413;-86
2022/07/14 01:32:42;;;;;;;0.68;0.65;;;;;;;21.36;48.73;98338.31;5020949;28;20073;-85
2022/07/14 01:35:09;;;;;;;0.70;0.70;;;;;;;21.30;47.16;98330.56;5023093;28;20065;-86
2022/07/14 01:37:36;;;;;;;0.88;0.88;;;;;;;21.41;45.87;98336.69;5022368;28;20425;-85
2022/07/14 01:40:05;;;;;;;0.70;0.70;;;;;;;21.41;44.03;98337.53;5025241;28;20042;-86
2022/07/14 01:42:32;;;;;;;1.05;0.90;;;;;;;21.40;48.13;98353.78;5036731;28;20124;-86
2022/07/14 01:44:59;;;;;;;1.08;1.00;;;;;;;21.28;48.56;98348.66;5021480;28;20132;-85
2022/07/14 01:47:25;;;;;;;0.70;0.70;;;;;;;21.21;50.06;98342.75;5022752;28;20500;-85
2022/07/14 01:49:52;;;;;;;0.80;0.80;;;;;;;21.15;50.49;98339.28;5002022;28;20159;-86
2022/07/14 01:52:19;;;;;;;0.75;0.75;;;;;;;21.08;50.99;98339.53;5024288;28;20081;-85
2022/07/14 01:54:45;;;;;;;1.02;0.73;;;;;;;21.02;50.83;98345.91;5022744;28;20468;-86
2022/07/14 01:57:12;;;;;;;0.70;0.70;;;;;;;21.01;50.63;98343.50;5026879;28;20049;-86
2022/07/14 01:59:39;;;;;;;0.75;0.70;;;;;;;20.95;50.54;98333.88;5023706;28;20559;-86
2022/07/14 02:02:05;;;;;;;0.70;0.70;;;;;;;20.96;51.47;98338.94;5026392;28;20465;-86
2022/07/14 02:04:32;;;;;;;0.80;0.80;;;;;;;20.83;50.41;98337.56;5026819;28;20465;-86
2022/07/14 02:06:59;;;;;;;1.27;1.17;;;;;;;20.77;52.84;98335.13;5025814;28;20033;-86
2022/07/14 02:12:10;;;;;;;1.02;1.00;;;;;;;20.68;53.96;98345.47;5022469;28;20359;-86
2022/07/14 02:12:12;;;;;;;0.80;0.80;;;;;;;20.66;53.54;98344.94;5024759;28;20448;-86
2022/07/14 02:14:40;;;;;;;0.80;0.80;;;;;;;20.62;53.63;98340.38;5023623;28;20077;-86
2022/07/14 02:17:08;;;;;;;0.77;0.77;;;;;;;20.62;54.13;98329.72;5025615;28;20099;-86
2022/07/14 02:19:36;;;;;;;0.70;0.70;;;;;;;20.66;53.20;98336.16;5018551;28;20121;-86
2022/07/14 02:22:04;;;;;;;0.60;0.60;;;;;;;20.67;54.03;98343.06;5021895;28;20037;-85
2022/07/14 02:24:31;;;;;;;0.68;0.65;;;;;;;20.60;54.43;98327.31;5051204;28;20456;-85
2022/07/14 02:26:57;;;;;;;0.65;0.65;;;;;;;20.65;53.52;98334.53;5024276;28;20042;-85
2022/07/14 02:29:24;;;;;;;1.02;1.02;;;;;;;20.51;51.85;98323.53;5020995;28;20054;-86
2022/07/14 02:31:51;;;;;;;0.90;0.90;;;;;;;20.47;53.72;98322.47;5020538;28;20525;-86
2022/07/14 02:34:18;;;;;;;0.80;0.80;;;;;;;20.53;54.62;98334.75;5021985;28;20049;-85
2022/07/14 02:36:44;;;;;;;1.27;0.73;;;;;;;20.50;54.09;98338.72;5018086;28;20116;-86
2022/07/14 02:39:13;;;;;;;0.80;0.80;;;;;;;20.50;52.75;98343.25;5025340;28;20192;-86
2022/07/14 02:41:41;;;;;;;0.60;0.60;;;;;;;20.53;53.46;98338.22;5023253;28;20524;-85
2022/07/14 02:44:08;;;;;;;0.70;0.70;;;;;;;20.53;53.97;98335.53;5025119;28;20092;-85
2022/07/14 02:46:37;;;;;;;1.00;1.00;;;;;;;20.43;52.83;98330.13;5027245;28;20049;-86
2022/07/14 02:49:04;;;;;;;1.02;0.80;;;;;;;20.44;52.47;98334.38;5029688;28;20477;-86
2022/07/14 02:51:31;;;;;;;0.88;0.88;;;;;;;20.34;53.12;98314.91;5027896;28;20081;-85
2022/07/14 02:53:58;;;;;;;0.80;0.80;;;;;;;20.36;53.36;98337.53;5022859;28;20112;-85
2022/07/14 02:56:25;;;;;;;1.77;1.13;;;;;;;20.29;53.70;98347.63;5025540;28;20045;-85
2022/07/14 02:58:51;;;;;;;1.00;1.00;;;;;;;20.25;53.02;98343.84;5021395;28;20045;-85
2022/07/14 03:01:18;;;;;;;1.10;1.00;;;;;;;20.13;53.35;98340.56;5028646;28;20053;-86
2022/07/14 03:03:46;;;;;;;0.80;0.80;;;;;;;20.17;54.23;98339.81;5027002;28;20092;-85
2022/07/14 03:06:19;;;;;;;0.80;0.80;;;;;;;20.17;54.44;98341.69;5024236;28;20041;-85
2022/07/14 03:08:46;;;;;;;0.80;0.80;;;;;;;20.11;54.84;98340.03;5023882;28;20041;-86
2022/07/14 03:11:12;;;;;;;1.80;0.73;;;;;;;20.12;53.07;98338.97;5023887;28;20048;-86
2022/07/14 03:13:40;;;;;;;0.77;0.77;;;;;;;20.12;53.54;98344.28;5041335;28;20065;-85
2022/07/14 03:16:09;;;;;;;0.70;0.70;;;;;;;20.07;52.69;98349.56;5024041;28;20041;-86
2022/07/14 03:18:40;;;;;;;0.70;0.70;;;;;;;20.10;53.98;98354.41;5020847;28;20073;-86
2022/07/14 03:21:09;;;;;;;0.90;0.90;;;;;;;20.06;54.75;98351.44;5026133;28;20172;-85
2022/07/14 03:23:36;;;;;;;0.90;0.90;;;;;;;20.02;53.87;98358.31;5024234;28;20041;-85
2022/07/14 03:26:04;;;;;;;0.75;0.73;;;;;;;20.03;54.78;98352.78;5024481;28;20041;-85
2022/07/14 03:28:31;;;;;;;1.02;0.90;;;;;;;19.96;54.61;98349.50;5023545;28;20064;-86
2022/07/14 03:30:59;;;;;;;0.70;0.70;;;;;;;19.96;55.81;98348.69;5026081;28;20068;-86
2022/07/14 03:33:26;;;;;;;0.80;0.80;;;;;;;19.88;55.82;98352.63;5026049;28;20053;-86
2022/07/14 03:35:53;;;;;;;0.80;0.80;;;;;;;19.74;55.11;98324.84;5005980;28;20034;-86
2022/07/14 03:38:19;;;;;;;0.80;0.80;;;;;;;19.79;55.14;98338.16;5023701;28;20382;-86
2022/07/14 03:41:03;;;;;;;0.77;0.77;;;;;;;19.70;54.62;98335.19;5023091;28;20048;-85
2022/07/14 03:43:31;;;;;;;0.85;0.85;;;;;;;19.71;55.46;98351.94;5055209;28;20096;-86
2022/07/14 03:45:58;;;;;;;0.70;0.70;;;;;;;19.65;55.80;98353.75;5025334;28;20489;-86
2022/07/14 03:48:25;;;;;;;1.10;1.00;;;;;;;19.57;55.21;98356.84;5025981;28;20060;-86
2022/07/14 03:50:52;;;;;;;0.98;0.98;;;;;;;19.51;56.65;98352.53;5023022;28;20125;-85
2022/07/14 03:53:19;;;;;;;0.70;0.70;;;;;;;19.52;56.85;98359.44;5027980;28;20049;-85
2022/07/14 03:55:45;;;;;;;0.70;0.70;;;;;;;19.47;56.40;98356.72;5023542;28;20497;-86
2022/07/14 03:58:19;;;;;;;0.90;0.90;;;;;;;19.45;57.24;98346.34;5009200;28;20095;-86
2022/07/14 04:00:46;;;;;;;0.88;0.82;;;;;;;19.47;57.14;98348.75;5027713;28;20395;-86
2022/07/14 04:03:13;;;;;;;0.82;0.80;;;;;;;19.39;56.19;98339.38;5025270;28;20041;-86
2022/07/14 04:05:40;;;;;;;0.90;0.90;;;;;;;19.40;56.75;98342.84;5025906;28;20493;-85
2022/07/14 04:08:07;;;;;;;0.80;0.80;;;;;;;19.30;56.77;98346.19;5028670;28;20069;-85
2022/07/14 04:10:33;;;;;;;1.00;1.00;;;;;;;19.26;57.28;98345.09;5027360;28;20456;-86
2022/07/14 04:13:00;;;;;;;1.20;1.08;;;;;;;19.19;57.28;98349.78;5019184;28;20030;-85
2022/07/14 04:15:28;;;;;;;0.90;0.90;;;;;;;19.19;57.71;98357.75;5025817;28;20104;-86
2022/07/14 04:17:56;;;;;;;0.82;0.80;;;;;;;19.22;57.89;98357.25;5016719;28;20041;-86
2022/07/14 04:20:23;;;;;;;1.00;0.90;;;;;;;19.24;57.63;98347.97;5024280;28;20081;-86
2022/07/14 04:22:51;;;;;;;0.80;0.80;;;;;;;19.27;58.05;98346.69;5021042;28;20103;-86
2022/07/14 04:25:18;;;;;;;1.10;0.90;;;;;;;19.28;58.62;98337.66;5026325;28;20045;-85
2022/07/14 04:27:44;;;;;;;1.05;0.75;;;;;;;19.25;57.94;98336.31;5024253;28;20107;-85
2022/07/14 04:30:14;;;;;;;1.42;0.77;;;;;;;19.28;57.63;98340.31;5021570;28;20378;-86
2022/07/14 04:32:40;;;;;;;0.80;0.80;;;;;;;19.25;57.43;98332.81;5020140;28;20076;-85
2022/07/14 04:35:08;;;;;;;0.98;0.98;;;;;;;19.21;57.49;98353.81;5022340;28;20099;-85
2022/07/14 04:37:35;;;;;;;1.00;1.00;;;;;;;19.12;57.59;98343.84;5020160;28;20056;-85
2022/07/14 04:40:03;;;;;;;1.02;1.02;;;;;;;19.14;58.85;98347.09;5024496;28;20049;-86
2022/07/14 04:42:30;;;;;;;0.90;0.90;;;;;;;19.01;59.68;98352.75;5022925;28;20041;-86
2022/07/14 04:44:57;;;;;;;1.00;1.00;;;;;;;19.01;58.34;98358.06;5025583;28;20117;-86
2022/07/14 04:47:24;;;;;;;1.52;1.42;;;;;;;18.94;58.25;98353.75;5026271;28;20104;-85
2022/07/14 04:52:35;;;;;;;0.90;0.90;;;;;;;18.95;60.47;98366.00;5023647;28;20084;-85
2022/07/14 04:55:02;;;;;;;1.10;0.95;;;;;;;19.01;61.79;98352.75;5026954;28;20069;-85
2022/07/14 04:57:29;;;;;;;0.90;0.90;;;;;;;19.03;62.88;98329.41;5024517;28;20045;-85
2022/07/14 04:59:59;;;;;;;1.10;1.10;;;;;;;19.11;60.07;98337.72;5025396;28;20250;-85
2022/07/14 05:02:26;;;;;;;1.00;1.00;;;;;;;19.24;57.44;98357.81;5026445;28;20045;-86
2022/07/14 05:04:53;;;;;;;1.63;1.10;;;;;;;19.22;59.88;98352.75;5018960;28;20045;-85
2022/07/14 05:07:19;;;;;;;1.13;1.02;;;;;;;19.27;60.07;98349.34;5019886;28;20091;-86
2022/07/14 05:09:46;;;;;;;2.10;1.30;;;;;;;19.40;59.56;98356.13;5025339;28;20501;-86
2022/07/14 05:12:16;;;;;;;1.00;1.00;;;;;;;19.42;57.10;98357.47;5024968;28;20108;-86
2022/07/14 05:14:42;;;;;;;1.48;1.00;;;;;;;19.55;58.34;98366.09;5022495;28;20453;-85
2022/07/14 05:17:09;;;;;;;1.00;1.00;;;;;;;19.64;58.55;98373.44;5021237;28;20473;-86
2022/07/14 05:19:42;;;;;;;1.30;1.20;;;;;;;19.69;55.23;98370.03;5031007;28;20046;-85
2022/07/14 05:22:09;;;;;;;1.30;1.20;;;;;;;19.77;55.13;98373.03;5024159;28;20163;-85
2022/07/14 05:24:35;;;;;;;1.30;1.20;;;;;;;19.90;56.12;98373.66;5022502;28;20115;-85
2022/07/14 05:27:02;;;;;;;1.20;1.10;;;;;;;19.90;55.43;98344.38;5024255;28;20034;-87
2022/07/14 05:29:29;;;;;;;1.40;1.30;;;;;;;20.09;55.15;98356.28;5027572;28;20073;-85
2022/07/14 05:32:00;;;;;;;1.85;1.25;;;;;;;20.21;53.42;98350.75;5026511;28;20551;-85
2022/07/14 05:34:29;;;;;;;1.35;1.20;;;;;;;20.33;54.45;98348.69;5023425;28;20041;-86
2022/07/14 05:36:57;;;;;;;1.45;1.35;;;;;;;20.48;55.17;98348.03;5020921;28;20569;-86
2022/07/14 05:39:23;;;;;;;1.42;1.33;;;;;;;20.57;53.98;98357.97;5021358;28;20111;-86
2022/07/14 05:41:50;;;;;;;1.25;1.20;;;;;;;20.64;55.54;98359.59;5022227;28;20308;-86
2022/07/14 05:44:17;;;;;;;1.55;1.10;;;;;;;20.60;56.37;98343.31;5024440;28;20041;-86
2022/07/14 05:46:44;;;;;;;1.58;1.20;;;;;;;20.72;53.99;98356.44;5023994;28;20547;-86
2022/07/14 05:49:10;;;;;;;1.20;1.10;;;;;;;20.92;54.71;98353.06;5023654;28;20543;-87
2022/07/14 05:51:37;;;;;;;1.48;1.38;;;;;;;21.01;55.73;98356.84;5020563;28;20492;-86
2022/07/14 05:54:04;;;;;;;1.20;1.10;;;;;;;21.22;55.60;98360.38;5024212;28;20038;-86
2022/07/14 05:56:30;;;;;;;1.30;1.20;;;;;;;21.32;53.07;98355.09;5025018;28;20315;-87
2022/07/14 05:58:57;;;;;;;1.23;1.13;;;;;;;21.44;54.10;98353.00;5023004;28;20091;-87
2022/07/14 06:01:44;;;;;;;2.08;1.35;;;;;;;21.76;54.58;98346.63;5020499;28;20041;-85
2022/07/14 06:04:10;;;;;;;1.40;1.30;;;;;;;22.06;52.38;98343.16;5025572;28;20466;-86
2022/07/14 06:06:37;;;;;;;1.42;1.33;;;;;;;22.24;51.62;98345.31;5025762;28;20042;-86
2022/07/14 06:09:04;;;;;;;1.38;1.27;;;;;;;22.34;51.39;98347.97;5026073;28;20042;-85
2022/07/14 06:11:30;;;;;;;1.52;1.20;;;;;;;22.50;53.41;98348.75;5023213;28;20050;-86
2022/07/14 06:13:57;;;;;;;1.65;1.45;;;;;;;22.53;53.83;98347.41;5006976;28;20123;-86
2022/07/14 06:16:24;;;;;;;2.45;1.40;;;;;;;22.64;50.89;98344.44;5025377;28;20077;-86
2022/07/14 06:18:50;;;;;;;1.50;1.40;;;;;;;22.93;50.43;98328.59;5025072;28;20045;-86
2022/07/14 06:21:18;;;;;;;1.48;1.38;;;;;;;23.08;51.46;98330.41;5026172;28;20060;-86
2022/07/14 06:23:45;;;;;;;1.17;1.17;;;;;;;23.21;51.49;98327.13;5024485;28;20068;-86
2022/07/14 06:26:12;;;;;;;1.27;1.20;;;;;;;23.43;50.30;98336.63;5032767;28;20072;-87
2022/07/14 06:28:39;;;;;;;1.30;1.20;;;;;;;23.42;48.71;98329.69;5033507;28;20045;-87
2022/07/14 06:31:05;;;;;;;1.50;1.40;;;;;;;23.44;50.67;98330.19;5020771;28;20104;-87
2022/07/14 06:33:33;;;;;;;1.50;1.40;;;;;;;23.53;50.52;98333.09;5032373;28;20092;-86
2022/07/14 06:35:59;;;;;;;1.60;1.50;;;;;;;23.53;48.88;98346.50;5031806;28;20128;-87
2022/07/14 06:38:29;;;;;;;1.63;1.45;;;;;;;23.60;52.62;98342.41;5028362;28;20071;-86
2022/07/14 06:40:55;;;;;;;1.70;1.60;;;;;;;23.61;51.08;98335.97;5031978;28;20042;-87
2022/07/14 06:43:22;;;;;;;1.42;1.33;;;;;;;23.80;52.10;98338.00;5034979;28;20049;-88
2022/07/14 06:45:50;;;;;;;1.60;1.50;;;;;;;23.95;48.58;98346.75;5035703;28;20050;-87
2022/07/14 06:48:17;;;;;;;1.90;1.70;;;;;;;24.07;48.59;98342.91;5023064;28;20065;-87
2022/07/14 06:50:45;;;;;;;1.70;1.60;;;;;;;24.38;47.99;98336.19;5030162;28;20033;-87
2022/07/14 06:53:12;;;;;;;1.90;1.50;;;;;;;24.76;46.52;98329.06;5035529;28;20057;-87
2022/07/14 06:55:39;;;;;;;1.67;1.50;;;;;;;24.98;48.36;98331.22;5033392;28;20120;-87
2022/07/14 06:58:05;;;;;;;1.58;1.40;;;;;;;25.12;47.79;98319.81;5026848;28;20045;-87
2022/07/14 07:00:32;;;;;;;1.30;1.20;;;;;;;25.35;44.89;98322.44;5029981;28;20042;-87
2022/07/14 07:02:59;;;;;;;1.42;1.33;;;;;;;25.34;45.64;98318.16;5018511;28;20045;-87
2022/07/14 07:08:12;;;;;;;1.50;1.40;;;;;;;25.33;43.59;98315.78;5032946;28;20072;-87
2022/07/14 07:10:42;;;;;;;1.27;1.27;;;;;;;25.26;43.34;98316.16;5022400;28;20088;-88
2022/07/14 07:13:09;;;;;;;1.50;1.40;;;;;;;25.41;46.77;98308.94;5021018;28;20073;-88
2022/07/14 07:15:38;;;;;;;1.70;1.38;;;;;;;25.44;46.80;98305.69;5022598;28;20076;-88
2022/07/14 07:18:07;;;;;;;2.08;1.73;;;;;;;25.40;44.73;98299.31;5025670;28;20041;-88
2022/07/14 07:20:36;;;;;;;2.42;1.60;;;;;;;25.41;44.56;98295.53;5020866;28;20798;-87
2022/07/14 07:23:03;;;;;;;1.70;1.60;;;;;;;25.51;46.85;98306.91;5025293;28;20452;-88
2022/07/14 07:25:30;;;;;;;1.98;1.48;;;;;;;25.65;47.91;98308.84;5028406;28;20041;-87
2022/07/14 07:27:59;;;;;;;1.38;1.27;;;;;;;25.71;45.10;98299.63;5033422;28;20072;-87
2022/07/14 07:30:25;;;;;;;1.60;1.50;;;;;;;25.67;45.44;98291.38;5016636;28;20077;-88
2022/07/14 07:32:52;;;;;;;1.40;1.30;;;;;;;25.80;45.98;98297.91;5016422;28;20050;-87
2022/07/14 07:35:19;;;;;;;1.48;1.27;;;;;;;25.81;46.02;98294.94;5021925;28;20046;-87
2022/07/14 07:37:47;;;;;;;1.30;1.30;;;;;;;25.92;46.50;98294.75;5025158;28;20552;-88
2022/07/14 07:40:15;;;;;;;1.33;1.30;;;;;;;25.85;44.79;98293.25;5021805;28;20045;-88
2022/07/14 07:42:42;;;;;;;1.55;1.33;;;;;;;25.86;44.48;98292.16;5017240;28;20057;-87
2022/07/14 07:45:10;;;;;;;1.52;1.30;;;;;;;26.17;45.36;98291.63;5013807;28;20052;-87
2022/07/14 07:47:37;;;;;;;1.40;1.30;;;;;;;26.42;47.17;98296.56;5024108;28;20516;-88
2022/07/14 07:50:05;;;;;;;1.10;1.10;;;;;;;26.58;43.79;98285.50;5025335;28;20068;-88
2022/07/14 07:52:32;;;;;;;1.20;1.10;;;;;;;26.64;42.48;98290.50;5041029;28;20092;-88
2022/07/14 07:54:59;;;;;;;1.38;1.27;;;;;;;26.67;42.24;98283.69;5032700;28;20037;-88
2022/07/14 07:57:45;;;;;;;1.40;1.30;;;;;;;26.81;42.51;98279.13;5032723;28;20397;-88
2022/07/14 08:00:13;;;;;;;2.42;1.48;;;;;;;26.91;41.79;98272.72;5031253;28;20064;-87
2022/07/14 08:02:48;;;;;;;1.40;1.30;;;;;;;26.91;42.79;98278.09;5032918;28;20120;-87
2022/07/14 08:05:18;;;;;;;2.65;1.67;;;;;;;26.92;41.12;98269.72;5031034;28;20440;-86
2022/07/14 08:08:08;;;;;;;1.50;1.40;;;;;;;27.02;44.40;98273.28;5019996;28;20501;-87
2022/07/14 08:10:37;;;;;;;1.60;1.50;;;;;;;27.12;45.66;98276.59;5021145;28;20045;-87
2022/07/14 08:13:04;;;;;;;2.40;2.10;;;;;;;27.03;40.51;98253.34;5013708;28;20045;-86
2022/07/14 08:15:31;;;;;;;2.25;1.80;;;;;;;27.14;40.75;98255.53;5016950;28;20087;-88
2022/07/14 08:17:59;;;;;;;1.50;1.40;;;;;;;27.39;39.71;98245.28;5029365;28;20038;-88
2022/07/14 08:20:34;;;;;;;1.65;1.55;;;;;;;27.51;40.32;98242.03;5022739;28;20042;-87
2022/07/14 08:23:01;;;;;;;3.15;1.92;;;;;;;27.62;39.29;98243.38;5025782;28;20045;-86
2022/07/14 08:25:29;;;;;;;2.63;2.10;;;;;;;27.74;37.17;98246.34;5028304;28;20061;-87
2022/07/14 08:27:55;;;;;;;1.60;1.50;;;;;;;27.96;40.23;98232.84;5024255;28;20084;-88
2022/07/14 08:30:22;;;;;;;2.65;1.70;;;;;;;27.95;38.28;98236.66;5028364;28;20884;-87
2022/07/14 08:32:51;;;;;;;2.38;1.50;;;;;;;27.85;37.50;98219.94;5027809;28;20500;-88
2022/07/14 08:35:23;;;;;;;1.35;1.23;;;;;;;27.92;36.99;98225.69;5046980;28;20132;-88
2022/07/14 08:37:52;;;;;;;1.20;1.20;;;;;;;28.09;37.33;98224.97;5014731;28;20133;-88
2022/07/14 08:40:26;;;;;;;1.17;1.17;;;;;;;28.22;35.07;98224.06;5015220;28;20425;-89
2022/07/14 08:42:56;;;;;;;1.40;1.30;;;;;;;28.33;36.75;98209.22;5031574;28;20041;-89
2022/07/14 08:45:26;;;;;;;2.42;1.38;;;;;;;28.46;35.47;98208.28;5010195;28;20046;-88
2022/07/14 08:47:53;;;;;;;1.10;1.10;;;;;;;28.51;36.88;98201.97;5025841;28;20087;-85
2022/07/14 08:50:24;;;;;;;1.67;1.35;;;;;;;28.26;35.72;98188.06;5029494;28;20053;-85
2022/07/14 08:52:51;;;;;;;1.20;1.10;;;;;;;28.40;35.82;98190.66;5020394;28;20053;-85
2022/07/14 08:55:19;;;;;;;1.40;1.30;;;;;;;28.65;33.79;98199.91;5033204;28;20092;-85
2022/07/14 08:57:46;;;;;;;1.50;1.20;;;;;;;28.83;33.63;98194.53;5031026;28;20072;-84
2022/07/14 09:00:17;;;;;;;1.40;1.30;;;;;;;28.81;35.51;98194.88;5030052;28;20398;-87
2022/07/14 09:02:54;;;;;;;1.40;1.30;;;;;;;28.97;33.61;98184.44;5027906;28;20068;-85
2022/07/14 09:05:44;;;;;;;2.17;1.40;;;;;;;29.13;33.66;98182.03;5018323;28;20041;-85
2022/07/14 09:08:13;;;;;;;2.10;2.00;;;;;;;28.67;33.86;98172.63;5016620;28;20087;-85
2022/07/14 09:10:43;;;;;;;1.60;1.20;;;;;;;28.39;34.83;98183.69;5017856;28;20135;-85
2022/07/14 09:13:32;;;;;;;3.38;1.80;;;;;;;28.45;33.81;98184.34;5053781;28;20056;-85
2022/07/14 09:16:23;;;;;;;2.38;1.70;;;;;;;28.65;33.28;98177.53;5027010;28;20034;-83
2022/07/14 09:19:09;;;;;;;2.65;1.80;;;;;;;28.82;33.61;98161.38;5000336;28;20478;-84
2022/07/14 09:21:42;;;;;;;2.35;1.80;;;;;;;28.99;33.06;98166.78;5022109;28;20053;-84
2022/07/14 09:24:10;;;;;;;1.75;1.65;;;;;;;29.09;32.69;98156.78;5024743;28;20096;-84
2022/07/14 09:26:47;;;;;;;1.25;1.13;;;;;;;29.47;33.75;98149.56;5024757;28;20452;-85
2022/07/14 09:29:23;;;;;;;3.28;1.50;;;;;;;29.87;32.08;98146.59;5011419;28;20088;-84
2022/07/14 09:31:50;;;;;;;1.50;1.40;;;;;;;29.93;31.94;98137.19;5051945;28;20121;-84
2022/07/14 09:34:32;;;;;;;2.22;1.52;;;;;;;30.04;33.13;98129.50;5026810;28;20433;-85
2022/07/14 09:37:25;;;;;;;1.73;1.60;;;;;;;30.11;34.05;98124.41;5026972;28;20136;-85
2022/07/14 09:39:58;;;;;;;1.88;1.40;;;;;;;30.42;32.29;98124.06;5027886;28;20168;-86
2022/07/14 09:42:47;;;;;;;1.60;1.50;;;;;;;30.55;32.77;98112.19;5029090;28;20484;-85
2022/07/14 09:45:15;;;;;;;1.37;1.27;;;;;;;30.65;31.95;98106.38;5029764;28;20076;-85
2022/07/14 09:48:03;;;;;;;1.40;1.30;;;;;;;30.70;32.03;98107.31;5028070;28;20834;-85
2022/07/14 09:50:57;;;;;;;1.60;1.33;;;;;;;30.77;32.41;98102.13;5010924;28;20076;-86
2022/07/14 09:53:31;;;;;;;2.28;1.33;;;;;;;30.67;32.76;98095.22;5023161;28;20049;-86
2022/07/14 09:56:04;;;;;;;2.45;1.50;;;;;;;30.65;32.78;98095.53;5025314;28;20046;-85
2022/07/14 09:58:44;;;;;;;2.97;1.50;;;;;;;30.60;33.94;98098.44;5049256;28;20110;-84
2022/07/14 10:01:18;;;;;;;2.75;1.67;;;;;;;30.68;31.64;98098.69;5032958;28;20095;-86
2022/07/14 10:03:47;;;;;;;1.75;1.50;;;;;;;30.77;32.23;98083.19;5027358;28;20488;-86
2022/07/14 10:06:15;;;;;;;1.83;1.73;;;;;;;30.82;30.06;98083.00;5028153;28;20088;-84
2022/07/14 10:09:06;;;;;;;2.42;1.95;;;;;;;31.07;30.89;98078.47;5029298;28;20298;-83
2022/07/14 10:11:34;;;;;;;1.80;1.58;;;;;;;31.16;30.56;98079.94;5021839;28;20864;-87
2022/07/14 10:14:02;;;;;;;2.70;1.70;;;;;;;31.47;29.63;98075.97;5023287;28;20041;-85
2022/07/14 10:16:34;;;;;;;2.58;1.70;;;;;;;31.53;32.23;98079.25;5027591;28;20037;-84
2022/07/14 10:19:05;;;;;;;1.42;1.33;;;;;;;31.37;31.44;98076.41;5011301;28;20041;-85
2022/07/14 10:21:41;;;;;;;2.45;2.03;;;;;;;31.05;28.82;98078.78;5030902;28;20107;-87
2022/07/14 10:24:09;;;;;;;7.28;2.10;;;;;;;31.01;29.59;98079.78;5030248;28;20049;-85
2022/07/14 10:26:37;;;;;;;4.60;2.03;;;;;;;30.68;28.39;98066.22;5029278;28;20047;-85
2022/07/14 10:29:07;;;;;;;2.90;1.60;;;;;;;30.86;29.52;98071.16;5020595;28;20049;-84
2022/07/14 10:32:24;;;;;;;4.18;1.50;;;;;;;31.11;31.83;98065.81;5022451;28;20485;-86
2022/07/14 10:35:06;;;;;;;5.82;1.90;;;;;;;31.18;28.08;98057.94;5028485;28;20049;-87
2022/07/14 10:38:13;;;;;;;2.65;1.80;;;;;;;31.31;27.94;98062.31;5009603;28;20050;-90
2022/07/14 10:41:10;;;;;;;2.55;1.30;;;;;;;31.80;27.72;98054.22;5022745;28;20046;-87
2022/07/14 10:44:05;;;;;;;2.72;1.80;;;;;;;31.85;27.91;98050.50;5010562;28;20046;-86
2022/07/14 10:46:44;;;;;;;2.55;2.05;;;;;;;31.42;26.51;98063.41;5053636;28;20038;-87
2022/07/14 10:49:14;;;;;;;4.40;2.00;;;;;;;31.44;27.15;98033.28;5052331;28;20490;-90
2022/07/14 10:51:49;;;;;;;3.83;1.90;;;;;;;31.24;26.90;98061.22;5033510;28;20181;-86
2022/07/14 10:54:24;;;;;;;5.18;2.00;;;;;;;31.20;26.58;98052.19;5020443;28;20140;-89
2022/07/14 10:57:19;;;;;;;2.35;1.80;;;;;;;31.37;27.62;98041.97;5026960;28;20438;-86
2022/07/14 10:59:48;;;;;;;3.38;1.90;;;;;;;31.54;27.20;98054.50;5031487;28;20053;-83
2022/07/14 11:02:15;;;;;;;2.58;1.70;;;;;;;31.48;26.69;98050.44;5028693;28;20501;-84
2022/07/14 11:08:03;;;;;;;1.75;1.65;;;;;;;31.70;26.37;98017.47;5022345;28;20050;-87
2022/07/14 11:10:30;;;;;;;3.42;1.70;;;;;;;32.01;27.04;98034.28;5031188;28;20071;-85
2022/07/14 11:12:59;;;;;;;2.85;1.88;;;;;;;31.52;26.44;98013.41;5026593;28;20049;-83
2022/07/14 11:15:44;;;;;;;3.37;1.80;;;;;;;31.41;26.59;98023.91;5024336;28;20060;-83
2022/07/14 11:18:17;;;;;;;3.47;1.90;;;;;;;31.38;26.41;98023.81;5023025;28;20052;-81
2022/07/14 11:20:50;;;;;;;4.53;2.20;;;;;;;31.50;26.25;98014.88;5032853;28;20060;-82
2022/07/14 11:23:24;;;;;;;2.10;1.85;;;;;;;31.50;26.11;98014.88;5030128;28;20107;-84
2022/07/14 11:25:53;;;;;;;4.47;1.92;;;;;;;31.61;26.61;97989.69;5028029;28;20046;-85
2022/07/14 11:28:41;;;;;;;3.10;1.75;;;;;;;31.84;26.16;98002.78;5023506;28;20115;-89
2022/07/14 11:31:11;;;;;;;2.30;1.88;;;;;;;32.21;26.16;97985.31;5020533;28;20088;-88
2022/07/14 11:37:02;;;;;;;3.92;2.17;;;;;;;32.23;25.59;97977.59;5026018;28;20445;-86
2022/07/14 11:39:48;;;;;;;2.30;2.10;;;;;;;31.78;25.31;97977.78;5025115;28;20045;-87
2022/07/14 11:42:17;;;;;;;3.78;1.80;;;;;;;31.98;25.69;97976.09;5027057;28;20106;-84
2022/07/14 11:44:48;;;;;;;3.28;1.92;;;;;;;32.22;26.52;97975.25;5027111;28;20041;-89
2022/07/14 11:47:29;;;;;;;2.55;1.90;;;;;;;32.52;26.39;97975.72;5027126;28;20037;-89
2022/07/14 11:50:08;;;;;;;3.40;1.67;;;;;;;33.02;25.32;97979.75;5025229;28;20041;-85
2022/07/14 11:52:41;;;;;;;3.15;2.25;;;;;;;32.68;24.83;97954.78;5026731;28;20816;-91
2022/07/14 11:55:12;;;;;;;2.77;2.47;;;;;;;32.61;25.55;97960.03;5025078;28;20064;-89
2022/07/14 11:57:50;;;;;;;2.95;2.13;;;;;;;32.60;26.57;97947.63;5027147;28;20413;-84
2022/07/14 12:00:17;;;;;;;2.58;2.38;;;;;;;32.46;26.70;97950.75;5028152;28;20049;-83